createdAt,value
2023-01-11T00:00:44.909Z,0.68
2023-01-11T00:03:12.191Z,0.60
2023-01-11T00:05:40.127Z,0.60
2023-01-11T00:08:07.363Z,0.50
2023-01-11T00:13:00.796Z,0.60
2023-01-11T00:15:27.773Z,0.65
2023-01-11T00:17:54.567Z,0.80
2023-01-11T00:20:21.427Z,0.60
2023-01-11T00:22:48.309Z,0.50
2023-01-11T00:25:14.982Z,0.52
2023-01-11T00:27:41.869Z,0.75
2023-01-11T00:30:09.078Z,0.70
2023-01-11T00:32:35.990Z,0.70
2023-01-11T00:35:03.566Z,0.50
2023-01-11T00:37:30.691Z,0.50
2023-01-11T00:45:25.554Z,0.60
2023-01-11T00:47:58.432Z,1.20
2023-01-11T01:17:27.545Z,1.20
2023-01-11T01:19:54.642Z,1.83
2023-01-11T01:27:16.974Z,2.22
2023-01-11T01:29:44.579Z,2.25
2023-01-11T01:32:11.488Z,2.10
2023-01-11T01:34:38.345Z,2.42
2023-01-11T01:37:05.592Z,2.55
2023-01-11T01:39:32.379Z,2.63
2023-01-11T01:41:59.504Z,2.80
2023-01-11T01:52:29.516Z,3.08
2023-01-11T01:54:59.264Z,3.10
2023-01-11T01:57:28.691Z,3.03
2023-01-11T01:59:56.628Z,3.05
2023-01-11T02:02:25.023Z,3.67
2023-01-11T02:04:52.824Z,3.08
2023-01-11T02:07:31.439Z,2.97
2023-01-11T02:14:54.769Z,3.30
2023-01-11T02:17:21.898Z,3.00
2023-01-11T02:19:54.626Z,3.38
2023-01-11T02:32:54.163Z,4.18
2023-01-11T02:35:41.344Z,3.60
2023-01-11T02:40:52.277Z,3.83
2023-01-11T02:43:42.780Z,5.28
2023-01-11T02:46:29.939Z,3.78
2023-01-11T02:59:02.511Z,3.00
2023-01-11T03:08:57.250Z,3.63
2023-01-11T03:11:48.377Z,3.05
2023-01-11T03:29:25.484Z,3.35
2023-01-11T03:37:07.860Z,3.53
2023-01-11T03:44:35.826Z,3.38
2023-01-11T03:47:07.366Z,3.78
2023-01-11T03:52:13.019Z,3.33
2023-01-11T03:54:40.260Z,4.00
2023-01-11T04:06:56.617Z,4.97
2023-01-11T04:09:23.644Z,2.90
2023-01-11T04:11:50.519Z,2.97
2023-01-11T04:14:17.380Z,3.30
2023-01-11T04:16:44.255Z,4.60
2023-01-11T04:19:11.056Z,4.00
2023-01-11T04:21:37.928Z,3.10
2023-01-11T04:24:04.919Z,3.30
2023-01-11T04:28:57.383Z,2.72
2023-01-11T04:31:24.408Z,5.50
2023-01-11T04:36:16.808Z,3.60
2023-01-11T04:38:46.623Z,3.50
2023-01-11T04:41:31.972Z,3.50
2023-01-11T04:43:58.942Z,4.05
2023-01-11T04:46:25.723Z,4.45
2023-01-11T04:48:52.720Z,3.63
2023-01-11T04:51:19.836Z,6.07
2023-01-11T04:53:50.485Z,5.63
2023-01-11T05:01:13.424Z,3.92
2023-01-11T05:11:01.900Z,4.78
2023-01-11T05:13:44.388Z,3.85
2023-01-11T05:40:34.581Z,4.60
2023-01-11T05:43:01.687Z,3.83
2023-01-11T05:45:33.013Z,4.07
2023-01-11T05:47:59.779Z,3.78
2023-01-11T05:50:26.659Z,4.25
2023-01-11T05:52:53.661Z,4.38
2023-01-11T05:55:20.426Z,4.25
2023-01-11T06:05:05.198Z,3.60
2023-01-11T06:07:32.201Z,4.22
2023-01-11T06:09:59.208Z,3.95
2023-01-11T06:19:42.572Z,3.45
2023-01-11T06:22:09.697Z,2.70
2023-01-11T06:24:36.575Z,2.97
2023-01-11T06:39:11.147Z,1.98
2023-01-11T06:46:29.342Z,3.42
2023-01-11T06:53:47.518Z,3.28
2023-01-11T06:56:16.199Z,3.13
2023-01-11T06:58:44.018Z,5.00
2023-01-11T07:01:12.535Z,7.30
2023-01-11T07:03:40.336Z,3.63
2023-01-11T07:06:07.461Z,7.70
2023-01-11T07:08:34.471Z,10.52
2023-01-11T07:11:01.261Z,14.73
2023-01-11T07:13:28.278Z,24.90
2023-01-11T07:15:57.099Z,9.07
2023-01-11T07:23:16.253Z,6.28
2023-01-11T07:25:43.129Z,5.43
2023-01-11T07:40:21.200Z,3.60
2023-01-11T07:57:44.152Z,2.95
2023-01-11T08:00:11.152Z,2.75
2023-01-11T08:02:38.113Z,3.83
2023-01-11T08:05:05.285Z,3.28
2023-01-11T08:07:32.285Z,3.42
2023-01-11T08:09:59.288Z,5.13
2023-01-11T08:12:45.015Z,3.38
2023-01-11T08:15:14.297Z,3.67
2023-01-11T08:17:41.184Z,3.42
2023-01-11T08:20:08.191Z,3.28
2023-01-11T08:22:35.084Z,3.70
2023-01-11T08:25:02.070Z,2.90
2023-01-11T08:27:28.955Z,3.47
2023-01-11T08:54:12.946Z,5.13
2023-01-11T09:08:48.466Z,3.65
2023-01-11T09:11:33.832Z,3.28
2023-01-11T09:16:26.069Z,4.13
2023-01-11T09:18:52.817Z,3.35
2023-01-11T09:35:57.180Z,3.90
2023-01-11T09:46:14.014Z,3.55
2023-01-11T09:58:51.681Z,5.53
2023-01-11T10:01:37.995Z,5.15
2023-01-11T10:06:44.605Z,5.55
2023-01-11T10:18:37.851Z,6.93
2023-01-11T10:28:23.156Z,6.10
2023-01-11T10:31:11.472Z,8.32
2023-01-11T10:36:56.416Z,5.68
2023-01-11T10:42:22.941Z,4.40
2023-01-11T10:44:50.544Z,4.47
2023-01-11T10:47:19.721Z,4.93
2023-01-11T11:05:27.660Z,3.30
2023-01-11T11:08:03.577Z,4.05
2023-01-11T11:10:56.834Z,4.25
2023-01-11T11:13:27.224Z,3.53
2023-01-11T11:16:03.287Z,3.97
2023-01-11T11:20:56.843Z,4.10
2023-01-11T11:23:24.809Z,3.63
2023-01-11T11:25:56.377Z,3.60
2023-01-11T11:28:23.384Z,3.45
2023-01-11T11:30:52.902Z,3.20
2023-01-11T11:33:22.904Z,3.25
2023-01-11T11:35:57.827Z,3.75
2023-01-11T11:38:26.190Z,3.83
2023-01-11T12:01:08.429Z,3.40
2023-01-11T12:03:35.687Z,3.30
2023-01-11T12:06:07.613Z,3.45
2023-01-11T12:08:34.982Z,3.15
2023-01-11T12:13:31.257Z,3.60
2023-01-11T12:16:05.935Z,4.68
2023-01-11T12:18:41.621Z,4.28
2023-01-11T12:23:44.594Z,2.92
2023-01-11T12:26:17.582Z,3.40
2023-01-11T12:31:34.126Z,3.08
2023-01-11T12:34:21.135Z,3.47
2023-01-11T12:36:47.811Z,3.55
2023-01-11T12:39:17.495Z,3.47
2023-01-11T12:44:22.683Z,2.92
2023-01-11T12:49:29.446Z,2.58
2023-01-11T12:57:27.776Z,3.25
2023-01-11T13:00:06.217Z,3.28
2023-01-11T13:02:37.771Z,8.25
2023-01-11T13:05:26.881Z,5.43
2023-01-11T13:10:27.967Z,5.70
2023-01-11T13:12:58.463Z,3.40
2023-01-11T13:18:10.523Z,3.75
2023-01-11T13:31:06.891Z,4.90
2023-01-11T13:39:20.849Z,4.05
2023-01-11T13:41:49.831Z,3.47
2023-01-11T13:44:20.736Z,4.75
2023-01-11T13:46:53.206Z,3.17
2023-01-11T13:54:52.523Z,2.80
2023-01-11T13:57:25.911Z,2.80
2023-01-11T14:02:26.943Z,3.13
2023-01-11T14:04:58.837Z,4.20
2023-01-11T14:07:34.403Z,3.92
2023-01-11T14:10:13.168Z,3.72
2023-01-11T14:12:55.178Z,3.72
2023-01-11T14:23:02.677Z,4.10
2023-01-11T14:25:38.255Z,3.00
2023-01-11T14:28:04.921Z,3.25
2023-01-11T14:30:46.531Z,4.53
2023-01-11T14:36:02.949Z,3.60
2023-01-11T14:38:41.144Z,4.43
2023-01-11T14:41:15.102Z,5.72
2023-01-11T14:43:47.970Z,3.70
2023-01-11T14:46:32.398Z,5.57
2023-01-11T14:49:10.796Z,3.08
2023-01-11T15:02:32.137Z,3.63
2023-01-11T15:07:37.459Z,4.75
2023-01-11T15:10:25.075Z,4.20
2023-01-11T15:15:21.002Z,4.43
2023-01-11T15:18:12.852Z,5.07
2023-01-11T15:20:50.583Z,4.32
2023-01-11T15:25:46.539Z,6.78
2023-01-11T15:28:32.065Z,4.72
2023-01-11T15:30:58.884Z,3.92
2023-01-11T15:33:25.661Z,4.20
2023-01-11T15:38:23.786Z,5.57
2023-01-11T15:40:51.190Z,2.85
2023-01-11T15:43:36.096Z,3.22
2023-01-11T15:46:29.069Z,3.50
2023-01-11T15:48:58.486Z,3.60
2023-01-11T15:51:32.699Z,3.67
2023-01-11T15:54:14.061Z,4.03
2023-01-11T15:56:55.908Z,4.85
2023-01-11T15:59:41.159Z,3.15
2023-01-11T16:02:16.010Z,3.20
2023-01-11T16:04:48.331Z,2.45
2023-01-11T16:07:20.894Z,3.20
2023-01-11T16:10:10.232Z,3.42
2023-01-11T16:12:45.872Z,3.47
2023-01-11T16:15:12.864Z,6.30
2023-01-11T16:17:42.671Z,8.07
2023-01-11T16:20:35.619Z,3.95
2023-01-11T16:23:03.672Z,3.08
2023-01-11T16:25:32.402Z,3.10
2023-01-11T16:30:25.485Z,2.53
2023-01-11T16:35:21.875Z,3.15
2023-01-11T16:40:27.413Z,3.00
2023-01-11T16:42:57.811Z,2.80
2023-01-11T16:48:22.809Z,3.53
2023-01-11T16:53:27.077Z,3.10
2023-01-11T16:55:59.149Z,2.72
2023-01-11T16:58:26.817Z,2.70
2023-01-11T17:01:03.226Z,3.38
2023-01-11T17:08:25.032Z,2.75
2023-01-11T17:16:15.456Z,3.45
2023-01-11T17:18:42.931Z,3.33
2023-01-11T17:26:17.072Z,3.17
2023-01-11T17:28:44.818Z,3.60
2023-01-11T17:31:18.754Z,4.43
2023-01-11T17:38:41.699Z,4.40
2023-01-11T17:44:15.554Z,3.33
2023-01-11T17:54:22.830Z,5.28
2023-01-11T17:56:59.264Z,4.22
2023-01-11T17:59:27.199Z,6.75
2023-01-11T18:01:59.925Z,4.30
2023-01-11T18:04:27.689Z,3.78
2023-01-11T18:06:55.517Z,4.35
2023-01-11T18:14:22.057Z,4.00
2023-01-11T18:19:41.653Z,3.90
2023-01-11T18:27:29.751Z,4.60
2023-01-11T18:30:01.546Z,4.87
2023-01-11T18:37:24.956Z,4.93
2023-01-11T18:39:52.595Z,5.35
2023-01-11T18:57:08.358Z,4.13
2023-01-11T18:59:35.315Z,4.43
2023-01-11T19:02:16.950Z,3.92
2023-01-11T19:04:44.248Z,4.95
2023-01-11T19:07:11.242Z,4.47
2023-01-11T19:09:38.339Z,6.15
2023-01-11T19:12:05.615Z,5.60
2023-01-11T19:14:32.511Z,4.97
2023-01-11T19:19:24.937Z,3.92
2023-01-11T19:21:52.088Z,4.78
2023-01-11T19:31:44.259Z,5.70
2023-01-11T19:34:12.703Z,4.00
2023-01-11T19:41:51.515Z,7.20
2023-01-11T19:46:46.841Z,5.13
2023-01-11T20:01:23.298Z,3.45
2023-01-11T20:03:50.759Z,3.72
2023-01-11T20:06:18.404Z,4.55
2023-01-11T20:08:45.444Z,3.53
2023-01-11T20:13:39.101Z,4.57
2023-01-11T20:16:07.111Z,3.97
2023-01-11T20:38:19.428Z,2.85
2023-01-11T20:40:46.552Z,3.25
2023-01-11T20:48:06.295Z,3.28
2023-01-11T20:50:34.013Z,2.83
2023-01-11T20:53:01.003Z,3.35
2023-01-11T20:55:28.023Z,2.85
2023-01-11T20:57:55.232Z,3.55
2023-01-11T21:00:22.466Z,3.50
2023-01-11T21:02:49.906Z,2.85
2023-01-11T21:05:17.210Z,2.83
2023-01-11T21:07:44.158Z,3.10
2023-01-11T21:10:11.411Z,3.47
2023-01-11T21:12:40.982Z,2.72
2023-01-11T21:15:10.945Z,3.15
2023-01-11T21:17:38.102Z,2.97
2023-01-11T21:24:56.788Z,3.10
2023-01-11T21:27:24.012Z,2.88
2023-01-11T21:29:51.160Z,3.28
2023-01-11T21:32:18.427Z,2.80
2023-01-11T21:34:50.108Z,3.75
2023-01-11T22:06:55.700Z,3.78
2023-01-11T22:09:25.544Z,3.10
2023-01-11T22:11:53.026Z,3.33
2023-01-11T23:45:42.283Z,3.50
2023-01-11T23:48:28.098Z,3.85
2023-01-11T23:50:55.464Z,3.35
2023-01-11T23:53:23.305Z,3.80
